createdAt,value
2017-01-25T00:00:44.439Z,0
2017-01-25T00:01:44.408Z,0
2017-01-25T00:02:45.105Z,0
2017-01-25T00:03:44.415Z,0
2017-01-25T00:04:44.517Z,0
2017-01-25T00:05:44.877Z,0
2017-01-25T00:06:44.483Z,0
2017-01-25T00:07:45.682Z,0
2017-01-25T00:08:45.242Z,0
2017-01-25T00:09:44.501Z,0
2017-01-25T00:10:46.278Z,0
2017-01-25T00:11:45.607Z,0
2017-01-25T00:12:46.074Z,0
2017-01-25T00:13:45.267Z,0
2017-01-25T00:14:45.737Z,0
2017-01-25T00:15:44.495Z,0
2017-01-25T00:16:45.403Z,0
2017-01-25T00:17:44.609Z,0
2017-01-25T00:18:44.913Z,0
2017-01-25T00:19:44.122Z,0
2017-01-25T00:20:44.949Z,0
2017-01-25T00:21:45.086Z,0
2017-01-25T00:22:44.936Z,0
2017-01-25T00:23:46.806Z,0
2017-01-25T00:24:44.964Z,0
2017-01-25T00:25:46.055Z,0
2017-01-25T00:26:45.410Z,0
2017-01-25T00:27:44.972Z,0
2017-01-25T00:28:45.042Z,0
2017-01-25T00:29:44.641Z,0
2017-01-25T00:30:44.250Z,0
2017-01-25T00:31:45.046Z,0
2017-01-25T00:32:44.665Z,0
2017-01-25T00:33:44.667Z,0
2017-01-25T00:34:46.828Z,0
2017-01-25T00:35:45.114Z,0
2017-01-25T00:36:46.093Z,0
2017-01-25T00:37:45.086Z,0
2017-01-25T00:38:45.097Z,0
2017-01-25T00:39:45.451Z,0
2017-01-25T00:40:45.055Z,0
2017-01-25T00:41:45.459Z,0
2017-01-25T00:42:45.565Z,0
2017-01-25T00:43:59.712Z,0
2017-01-25T00:44:45.905Z,0
2017-01-25T00:45:46.486Z,0
2017-01-25T00:46:45.491Z,0
2017-01-25T00:47:46.099Z,0
2017-01-25T00:48:45.114Z,0
2017-01-25T00:49:45.167Z,0
2017-01-25T00:50:45.124Z,0
2017-01-25T00:51:45.528Z,0
2017-01-25T00:52:45.584Z,0
2017-01-25T00:53:45.592Z,0
2017-01-25T00:54:45.548Z,0
2017-01-25T00:55:45.261Z,0
2017-01-25T00:56:46.791Z,0
2017-01-25T00:57:46.010Z,0
2017-01-25T00:58:46.350Z,0
2017-01-25T00:59:44.841Z,0
2017-01-25T01:00:45.640Z,0
2017-01-25T01:01:45.304Z,0
2017-01-25T01:02:44.424Z,0
2017-01-25T01:03:45.264Z,0
2017-01-25T01:04:45.719Z,0
2017-01-25T01:05:46.140Z,0
2017-01-25T01:06:45.234Z,0
2017-01-25T01:07:47.653Z,0
2017-01-25T01:08:44.934Z,0
2017-01-25T01:09:44.863Z,0
2017-01-25T01:10:45.758Z,0
2017-01-25T01:11:46.059Z,0
2017-01-25T01:12:45.278Z,0
2017-01-25T01:13:45.731Z,0
2017-01-25T01:14:45.287Z,0
2017-01-25T01:15:45.475Z,0
2017-01-25T01:16:45.605Z,0
2017-01-25T01:17:44.911Z,0
2017-01-25T01:18:47.380Z,0
2017-01-25T01:19:45.374Z,0
2017-01-25T01:20:44.542Z,0
2017-01-25T01:21:45.382Z,0
2017-01-25T01:22:44.993Z,0
2017-01-25T01:23:45.452Z,0
2017-01-25T01:24:44.956Z,0
2017-01-25T01:25:45.392Z,0
2017-01-25T01:26:45.416Z,0
2017-01-25T01:27:45.873Z,0
2017-01-25T01:28:45.429Z,0
2017-01-25T01:29:45.144Z,0
2017-01-25T01:30:45.864Z,0
2017-01-25T01:31:45.007Z,0
2017-01-25T01:32:45.803Z,0
2017-01-25T01:33:45.424Z,0
2017-01-25T01:34:45.918Z,0
2017-01-25T01:35:45.433Z,0
2017-01-25T01:36:45.195Z,0
2017-01-25T01:37:45.444Z,0
2017-01-25T01:38:45.998Z,0
2017-01-25T01:39:45.508Z,0
2017-01-25T01:40:45.466Z,0
2017-01-25T01:41:45.917Z,0
2017-01-25T01:42:45.138Z,0
2017-01-25T01:43:45.515Z,0
2017-01-25T01:44:46.330Z,0
2017-01-25T01:45:45.498Z,0
2017-01-25T01:46:45.109Z,0
2017-01-25T01:47:46.351Z,0
2017-01-25T01:48:45.910Z,0
2017-01-25T01:49:46.085Z,0
2017-01-25T01:50:45.534Z,0
2017-01-25T01:51:45.894Z,0
2017-01-25T01:52:45.149Z,0
2017-01-25T01:53:45.561Z,0
2017-01-25T01:54:45.212Z,0
2017-01-25T01:55:45.619Z,0
2017-01-25T01:56:44.873Z,0
2017-01-25T01:57:44.834Z,0
2017-01-25T01:58:45.190Z,0
2017-01-25T01:59:45.936Z,0
2017-01-25T02:00:46.692Z,0
2017-01-25T02:01:45.706Z,0
2017-01-25T02:02:46.009Z,0
2017-01-25T02:03:45.229Z,0
2017-01-25T02:04:45.722Z,0
2017-01-25T02:05:45.291Z,0
2017-01-25T02:06:46.129Z,0
2017-01-25T02:07:46.484Z,0
2017-01-25T02:08:45.649Z,0
2017-01-25T02:09:45.715Z,0
2017-01-25T02:10:45.022Z,0
2017-01-25T02:11:46.272Z,0
2017-01-25T02:12:46.423Z,0
2017-01-25T02:13:45.837Z,0
2017-01-25T02:14:46.087Z,0
2017-01-25T02:15:45.301Z,0
2017-01-25T02:16:46.199Z,0
2017-01-25T02:17:46.103Z,0
2017-01-25T02:18:45.716Z,0
2017-01-25T02:19:45.725Z,0
2017-01-25T02:20:45.783Z,0
2017-01-25T02:21:45.884Z,0
2017-01-25T02:22:46.445Z,0
2017-01-25T02:23:45.750Z,0
2017-01-25T02:24:46.110Z,0
2017-01-25T02:25:46.158Z,0
2017-01-25T02:26:45.771Z,0
2017-01-25T02:27:46.228Z,0
2017-01-25T02:28:45.783Z,0
2017-01-25T02:29:46.185Z,0
2017-01-25T02:30:45.792Z,0
2017-01-25T02:31:47.285Z,0
2017-01-25T02:32:45.537Z,0
2017-01-25T02:33:46.909Z,0
2017-01-25T02:34:45.867Z,0
2017-01-25T02:35:46.634Z,0
2017-01-25T02:36:45.488Z,0
2017-01-25T02:37:45.936Z,0
2017-01-25T02:38:46.237Z,0
2017-01-25T02:39:46.244Z,0
2017-01-25T02:40:46.351Z,0
2017-01-25T02:41:45.910Z,0
2017-01-25T02:42:46.659Z,0
2017-01-25T02:43:45.877Z,0
2017-01-25T02:44:47.027Z,0
2017-01-25T02:45:45.889Z,0
2017-01-25T02:46:46.295Z,0
2017-01-25T02:47:46.696Z,0
2017-01-25T02:48:46.410Z,0
2017-01-25T02:49:46.361Z,0
2017-01-25T02:50:46.314Z,0
2017-01-25T02:51:45.931Z,0
2017-01-25T02:52:45.987Z,0
2017-01-25T02:53:46.389Z,0
2017-01-25T02:54:45.561Z,0
2017-01-25T02:55:46.662Z,0
2017-01-25T02:56:46.116Z,0
2017-01-25T02:57:46.373Z,0
2017-01-25T02:58:45.979Z,0
2017-01-25T02:59:46.078Z,0
2017-01-25T03:00:46.045Z,0
2017-01-25T03:01:46.008Z,0
2017-01-25T03:02:46.448Z,0
2017-01-25T03:03:46.059Z,0
2017-01-25T03:04:46.462Z,0
2017-01-25T03:05:46.127Z,0
2017-01-25T03:06:47.637Z,0
2017-01-25T03:07:46.042Z,0
2017-01-25T03:08:46.650Z,0
2017-01-25T03:09:46.102Z,0
2017-01-25T03:10:46.058Z,0
2017-01-25T03:11:46.489Z,0
2017-01-25T03:12:46.172Z,0
2017-01-25T03:13:46.089Z,0
2017-01-25T03:14:46.480Z,0
2017-01-25T03:15:46.097Z,0
2017-01-25T03:16:45.802Z,0
2017-01-25T03:17:47.661Z,0
2017-01-25T03:18:46.949Z,0
2017-01-25T03:19:46.876Z,0
2017-01-25T03:20:45.781Z,0
2017-01-25T03:21:46.970Z,0
2017-01-25T03:22:45.804Z,0
2017-01-25T03:23:46.200Z,0
2017-01-25T03:24:46.548Z,0
2017-01-25T03:25:45.803Z,0
2017-01-25T03:26:46.212Z,0
2017-01-25T03:27:46.619Z,0
2017-01-25T03:28:48.076Z,0
2017-01-25T03:29:46.183Z,0
2017-01-25T03:30:47.108Z,0
2017-01-25T03:31:46.264Z,0
2017-01-25T03:32:46.676Z,0
2017-01-25T03:33:46.632Z,0
2017-01-25T03:34:46.666Z,0
2017-01-25T03:35:46.275Z,0
2017-01-25T03:36:46.631Z,0
2017-01-25T03:37:47.081Z,0
2017-01-25T03:38:46.244Z,0
2017-01-25T03:39:46.352Z,0
2017-01-25T03:40:45.912Z,0
2017-01-25T03:41:47.408Z,0
2017-01-25T03:42:46.821Z,0
2017-01-25T03:44:01.934Z,0
2017-01-25T03:44:45.567Z,0
2017-01-25T03:45:46.342Z,0
2017-01-25T03:46:46.747Z,0
2017-01-25T03:47:46.362Z,0
2017-01-25T03:48:46.385Z,0
2017-01-25T03:49:46.023Z,0
2017-01-25T03:50:47.808Z,0
2017-01-25T03:51:46.333Z,0
2017-01-25T03:52:47.448Z,0
2017-01-25T03:53:46.839Z,0
2017-01-25T03:54:47.204Z,0
2017-01-25T03:55:46.858Z,0
2017-01-25T03:56:46.815Z,0
2017-01-25T03:57:46.764Z,0
2017-01-25T03:58:46.378Z,0
2017-01-25T03:59:46.042Z,0
2017-01-25T04:00:47.186Z,0
2017-01-25T04:01:48.264Z,0
2017-01-25T04:02:47.198Z,0
2017-01-25T04:03:47.925Z,0
2017-01-25T04:04:46.811Z,0
2017-01-25T04:05:46.479Z,0
2017-01-25T04:06:46.430Z,0
2017-01-25T04:07:45.646Z,0
2017-01-25T04:08:46.101Z,0
2017-01-25T04:09:47.239Z,0
2017-01-25T04:10:46.462Z,0
2017-01-25T04:11:46.518Z,0
2017-01-25T04:12:46.133Z,0
2017-01-25T04:13:46.527Z,0
2017-01-25T04:14:47.940Z,0
2017-01-25T04:15:47.285Z,0
2017-01-25T04:16:46.916Z,0
2017-01-25T04:17:46.999Z,0
2017-01-25T04:18:46.560Z,0
2017-01-25T04:19:46.225Z,0
2017-01-25T04:20:47.250Z,0
2017-01-25T04:21:46.631Z,0
2017-01-25T04:22:46.551Z,0
2017-01-25T04:23:46.400Z,0
2017-01-25T04:24:46.553Z,0
2017-01-25T04:25:48.308Z,0
2017-01-25T04:26:46.623Z,0
2017-01-25T04:27:45.829Z,0
2017-01-25T04:28:46.579Z,0
2017-01-25T04:29:46.582Z,0
2017-01-25T04:30:47.006Z,0
2017-01-25T04:31:46.698Z,0
2017-01-25T04:32:46.631Z,0
2017-01-25T04:33:47.007Z,0
2017-01-25T04:34:47.089Z,0
2017-01-25T04:35:47.468Z,0
2017-01-25T04:36:48.372Z,0
2017-01-25T04:37:46.642Z,0
2017-01-25T04:38:46.246Z,0
2017-01-25T04:39:46.403Z,0
2017-01-25T04:40:46.705Z,0
2017-01-25T04:41:46.369Z,0
2017-01-25T04:42:47.077Z,0
2017-01-25T04:43:47.177Z,0
2017-01-25T04:44:47.076Z,0
2017-01-25T04:45:46.702Z,0
2017-01-25T04:46:46.698Z,0
2017-01-25T04:47:48.548Z,0
2017-01-25T04:48:47.204Z,0
2017-01-25T04:49:46.372Z,0
2017-01-25T04:50:46.725Z,0
2017-01-25T04:51:45.995Z,0
2017-01-25T04:52:47.140Z,0
2017-01-25T04:53:46.747Z,0
2017-01-25T04:54:46.415Z,0
2017-01-25T04:55:47.200Z,0
2017-01-25T04:56:47.244Z,0
2017-01-25T04:57:47.220Z,0
2017-01-25T04:58:48.675Z,0
2017-01-25T04:59:46.390Z,0
2017-01-25T05:00:46.842Z,0
2017-01-25T05:01:47.191Z,0
2017-01-25T05:02:47.402Z,0
2017-01-25T05:03:46.812Z,0
2017-01-25T05:04:46.868Z,0
2017-01-25T05:05:46.872Z,0
2017-01-25T05:06:46.836Z,0
2017-01-25T05:07:47.284Z,0
2017-01-25T05:08:46.997Z,0
2017-01-25T05:09:48.758Z,0
2017-01-25T05:10:47.303Z,0
2017-01-25T05:11:47.657Z,0
2017-01-25T05:12:46.470Z,0
2017-01-25T05:14:02.658Z,0
2017-01-25T05:14:46.934Z,0
2017-01-25T05:15:47.385Z,0
2017-01-25T05:16:46.950Z,0
2017-01-25T05:17:47.691Z,0
2017-01-25T05:18:47.366Z,0
2017-01-25T05:19:46.577Z,0
2017-01-25T05:20:49.301Z,0
2017-01-25T05:21:46.982Z,0
2017-01-25T05:22:47.388Z,0
2017-01-25T05:23:46.946Z,0
2017-01-25T05:24:47.718Z,0
2017-01-25T05:25:47.408Z,0
2017-01-25T05:26:46.625Z,0
2017-01-25T05:27:47.812Z,0
2017-01-25T05:28:47.075Z,0
2017-01-25T05:29:47.840Z,0
2017-01-25T05:30:47.834Z,0
2017-01-25T05:31:46.705Z,0
2017-01-25T05:32:47.111Z,0
2017-01-25T05:33:47.454Z,0
2017-01-25T05:34:47.414Z,0
2017-01-25T05:35:47.417Z,0
2017-01-25T05:36:47.830Z,0
2017-01-25T05:37:47.875Z,0
2017-01-25T05:38:46.691Z,0
2017-01-25T05:39:47.441Z,0
2017-01-25T05:40:48.299Z,0
2017-01-25T05:41:47.068Z,0
2017-01-25T05:42:47.564Z,0
2017-01-25T05:43:47.083Z,0
2017-01-25T05:44:47.089Z,0
2017-01-25T05:45:47.532Z,0
2017-01-25T05:46:47.492Z,0
2017-01-25T05:47:47.231Z,0
2017-01-25T05:48:47.509Z,0
2017-01-25T05:49:47.561Z,0
2017-01-25T05:50:48.260Z,0
2017-01-25T05:51:48.605Z,0
2017-01-25T05:52:47.186Z,0
2017-01-25T05:53:47.894Z,0
2017-01-25T05:54:47.157Z,0
2017-01-25T05:55:47.560Z,0
2017-01-25T05:56:46.490Z,0
2017-01-25T05:57:46.781Z,0
2017-01-25T05:58:46.834Z,0
2017-01-25T05:59:46.844Z,0
2017-01-25T06:00:47.646Z,0
2017-01-25T06:01:47.717Z,0
2017-01-25T06:02:48.817Z,0
2017-01-25T06:03:46.925Z,0
2017-01-25T06:04:48.125Z,0
2017-01-25T06:05:47.231Z,0
2017-01-25T06:06:47.340Z,0
2017-01-25T06:07:47.638Z,0
2017-01-25T06:08:47.699Z,0
2017-01-25T06:09:48.106Z,0
2017-01-25T06:10:47.363Z,0
2017-01-25T06:11:46.876Z,0
2017-01-25T06:12:46.932Z,0
2017-01-25T06:13:49.066Z,0
2017-01-25T06:14:47.391Z,0
2017-01-25T06:15:47.944Z,0
2017-01-25T06:16:48.103Z,0
2017-01-25T06:17:47.706Z,0
2017-01-25T06:18:47.371Z,0
2017-01-25T06:19:47.782Z,0
2017-01-25T06:20:47.341Z,0
2017-01-25T06:21:47.342Z,0
2017-01-25T06:22:47.398Z,0
2017-01-25T06:23:47.765Z,0
2017-01-25T06:24:49.162Z,0
2017-01-25T06:25:47.368Z,0
2017-01-25T06:26:48.125Z,0
2017-01-25T06:27:47.825Z,0
2017-01-25T06:28:47.833Z,0
2017-01-25T06:29:47.045Z,0
2017-01-25T06:30:47.403Z,0
2017-01-25T06:31:47.513Z,0
2017-01-25T06:32:47.514Z,0
2017-01-25T06:33:47.859Z,0
2017-01-25T06:34:47.081Z,0
2017-01-25T06:35:47.882Z,0
2017-01-25T06:36:47.888Z,0
2017-01-25T06:37:48.996Z,0
2017-01-25T06:38:47.457Z,0
2017-01-25T06:39:47.510Z,0
2017-01-25T06:40:47.960Z,0
2017-01-25T06:41:47.184Z,0
2017-01-25T06:42:47.136Z,0
2017-01-25T06:43:47.585Z,0
2017-01-25T06:44:47.248Z,0
2017-01-25T06:45:47.533Z,0
2017-01-25T06:46:47.919Z,0
2017-01-25T06:47:46.725Z,0
2017-01-25T06:48:47.122Z,0
2017-01-25T06:49:47.573Z,0
2017-01-25T06:50:47.582Z,0
2017-01-25T06:51:48.033Z,0
2017-01-25T06:52:48.403Z,0
2017-01-25T06:53:47.259Z,0
2017-01-25T06:54:48.356Z,0
2017-01-25T06:55:48.720Z,0
2017-01-25T06:56:46.804Z,0
2017-01-25T06:57:48.181Z,0
2017-01-25T06:58:48.038Z,0
2017-01-25T06:59:47.802Z,0
2017-01-25T07:00:48.097Z,0
2017-01-25T07:01:47.659Z,0
2017-01-25T07:02:47.614Z,0
2017-01-25T07:03:48.017Z,0
2017-01-25T07:04:47.727Z,0
2017-01-25T07:05:47.306Z,0
2017-01-25T07:06:48.695Z,0
2017-01-25T07:07:48.051Z,0
2017-01-25T07:08:48.386Z,0
2017-01-25T07:09:48.113Z,0
2017-01-25T07:10:48.115Z,0
2017-01-25T07:11:47.422Z,0
2017-01-25T07:12:47.792Z,0
2017-01-25T07:14:02.621Z,0
2017-01-25T07:14:47.759Z,0
2017-01-25T07:15:47.360Z,0
2017-01-25T07:16:47.711Z,0
2017-01-25T07:17:48.535Z,0
2017-01-25T07:18:47.348Z,0
2017-01-25T07:19:48.946Z,0
2017-01-25T07:20:47.838Z,0
2017-01-25T07:21:48.444Z,0
2017-01-25T07:22:48.545Z,0
2017-01-25T07:23:48.155Z,0
2017-01-25T07:24:48.262Z,0
2017-01-25T07:25:46.980Z,0
2017-01-25T07:26:47.385Z,0
2017-01-25T07:27:47.444Z,0
2017-01-25T07:28:47.006Z,0
2017-01-25T07:29:48.740Z,0
2017-01-25T07:30:49.455Z,0
2017-01-25T07:31:47.502Z,0
2017-01-25T07:32:48.737Z,0
2017-01-25T07:33:48.721Z,0
2017-01-25T07:34:47.835Z,0
2017-01-25T07:35:47.496Z,0
2017-01-25T07:36:47.450Z,0
2017-01-25T07:37:48.707Z,0
2017-01-25T07:38:48.701Z,0
2017-01-25T07:39:47.525Z,0
2017-01-25T07:40:47.637Z,0
2017-01-25T07:41:49.379Z,0
2017-01-25T07:42:47.565Z,0
2017-01-25T07:43:48.943Z,0
2017-01-25T07:44:48.351Z,0
2017-01-25T07:45:47.957Z,0
2017-01-25T07:46:47.228Z,0
2017-01-25T07:47:48.320Z,0
2017-01-25T07:48:48.333Z,0
2017-01-25T07:49:47.989Z,0
2017-01-25T07:50:48.445Z,0
2017-01-25T07:51:47.610Z,0
2017-01-25T07:52:49.995Z,0
2017-01-25T07:53:48.468Z,0
2017-01-25T07:54:49.342Z,0
2017-01-25T07:55:48.043Z,0
2017-01-25T07:56:47.994Z,0
2017-01-25T07:57:48.818Z,0
2017-01-25T07:58:48.360Z,0
2017-01-25T07:59:48.464Z,0
2017-01-25T08:00:48.471Z,0
2017-01-25T08:01:48.476Z,0
2017-01-25T08:02:48.044Z,0
2017-01-25T08:03:48.100Z,0
2017-01-25T08:04:47.765Z,0
2017-01-25T08:05:49.609Z,0
2017-01-25T08:06:48.522Z,0
2017-01-25T08:07:48.229Z,0
2017-01-25T08:08:48.485Z,5
2017-01-25T08:09:48.143Z,5
2017-01-25T08:10:48.508Z,5
2017-01-25T08:11:48.161Z,5
2017-01-25T08:12:48.637Z,5
2017-01-25T08:13:48.178Z,5
2017-01-25T08:14:47.991Z,5
2017-01-25T08:15:48.146Z,5
2017-01-25T08:16:49.844Z,5
2017-01-25T08:17:48.156Z,5
2017-01-25T08:18:47.805Z,5
2017-01-25T08:19:48.616Z,5
2017-01-25T08:20:48.678Z,5
2017-01-25T08:21:47.840Z,5
2017-01-25T08:22:48.620Z,5
2017-01-25T08:23:48.262Z,5
2017-01-25T08:24:48.608Z,5
2017-01-25T08:25:48.669Z,5
2017-01-25T08:26:48.232Z,5
2017-01-25T08:27:47.898Z,5
2017-01-25T08:28:48.296Z,5
2017-01-25T08:29:49.095Z,5
2017-01-25T08:30:48.315Z,5
2017-01-25T08:31:47.932Z,5
2017-01-25T08:32:48.730Z,5
2017-01-25T08:33:48.394Z,5
2017-01-25T08:34:48.554Z,5
2017-01-25T08:35:48.752Z,5
2017-01-25T08:36:48.636Z,5
2017-01-25T08:37:48.769Z,5
2017-01-25T08:38:48.334Z,5
2017-01-25T08:39:47.988Z,5
2017-01-25T08:40:49.184Z,5
2017-01-25T08:41:48.804Z,5
2017-01-25T08:42:48.807Z,5
2017-01-25T08:43:51.412Z,5
2017-01-25T08:44:48.377Z,5
2017-01-25T08:45:49.089Z,5
2017-01-25T08:46:47.683Z,5
2017-01-25T08:47:49.236Z,5
2017-01-25T08:48:48.406Z,5
2017-01-25T08:49:48.671Z,5
2017-01-25T08:50:48.530Z,5
2017-01-25T08:51:48.886Z,10
2017-01-25T08:52:48.498Z,10
2017-01-25T08:53:48.451Z,10
2017-01-25T08:54:48.855Z,10
2017-01-25T08:55:48.870Z,10
2017-01-25T08:56:49.730Z,10
2017-01-25T08:57:48.930Z,10
2017-01-25T08:58:49.741Z,10
2017-01-25T08:59:48.510Z,10
2017-01-25T09:00:49.351Z,10
2017-01-25T09:01:48.959Z,10
2017-01-25T09:02:48.526Z,10
2017-01-25T09:03:48.927Z,10
2017-01-25T09:04:48.539Z,10
2017-01-25T09:05:49.443Z,10
2017-01-25T09:06:48.169Z,10
2017-01-25T09:07:48.966Z,10
2017-01-25T09:08:48.245Z,10
2017-01-25T09:09:49.987Z,10
2017-01-25T09:10:48.241Z,10
2017-01-25T09:11:48.992Z,10
2017-01-25T09:12:49.049Z,10
2017-01-25T09:13:49.059Z,10
2017-01-25T09:14:49.462Z,10
2017-01-25T09:15:48.683Z,10
2017-01-25T09:16:48.739Z,15
2017-01-25T09:17:49.504Z,10
2017-01-25T09:18:48.704Z,10
2017-01-25T09:19:48.668Z,10
2017-01-25T09:20:50.222Z,15
2017-01-25T09:21:49.078Z,15
2017-01-25T09:22:49.528Z,15
2017-01-25T09:23:48.353Z,15
2017-01-25T09:24:48.751Z,15
2017-01-25T09:25:48.317Z,15
2017-01-25T09:26:49.115Z,15
2017-01-25T09:27:49.127Z,15
2017-01-25T09:28:48.787Z,15
2017-01-25T09:29:49.246Z,15
2017-01-25T09:30:49.207Z,15
2017-01-25T09:31:50.611Z,15
2017-01-25T09:32:49.267Z,15
2017-01-25T09:33:49.932Z,15
2017-01-25T09:34:48.792Z,15
2017-01-25T09:35:49.289Z,15
2017-01-25T09:36:49.271Z,15
2017-01-25T09:37:49.210Z,15
2017-01-25T09:38:48.083Z,15
2017-01-25T09:39:49.626Z,15
2017-01-25T09:40:49.237Z,15
2017-01-25T09:41:48.849Z,15
2017-01-25T09:42:51.035Z,15
2017-01-25T09:43:48.923Z,15
2017-01-25T09:44:48.501Z,15
2017-01-25T09:45:48.931Z,15
2017-01-25T09:46:48.990Z,15
2017-01-25T09:47:48.949Z,15
2017-01-25T09:48:49.698Z,15
2017-01-25T09:49:49.415Z,15
2017-01-25T09:50:49.321Z,15
2017-01-25T09:51:49.480Z,15
2017-01-25T09:52:48.646Z,15
2017-01-25T09:53:49.044Z,15
2017-01-25T09:54:48.560Z,15
2017-01-25T09:55:50.042Z,15
2017-01-25T09:56:49.392Z,15
2017-01-25T09:57:49.378Z,15
2017-01-25T09:58:49.088Z,15
2017-01-25T09:59:48.702Z,15
2017-01-25T10:00:48.711Z,15
2017-01-25T10:01:49.560Z,15
2017-01-25T10:02:49.471Z,15
2017-01-25T10:03:49.164Z,15
2017-01-25T10:04:49.086Z,15
2017-01-25T10:05:48.655Z,15
2017-01-25T10:06:49.054Z,15
2017-01-25T10:07:49.516Z,15
2017-01-25T10:08:49.123Z,15
2017-01-25T10:09:49.132Z,15
2017-01-25T10:10:49.140Z,15
2017-01-25T10:11:49.539Z,15
2017-01-25T10:12:49.500Z,15
2017-01-25T10:13:49.316Z,20
2017-01-25T10:14:49.617Z,20
2017-01-25T10:15:48.936Z,20
2017-01-25T10:16:50.028Z,20
2017-01-25T10:17:50.617Z,20
2017-01-25T10:18:49.159Z,20
2017-01-25T10:19:49.615Z,20
2017-01-25T10:20:49.569Z,20
2017-01-25T10:21:48.780Z,20
2017-01-25T10:22:48.899Z,20
2017-01-25T10:23:49.642Z,20
2017-01-25T10:24:49.658Z,20
2017-01-25T10:25:49.685Z,25
2017-01-25T10:26:49.618Z,25
2017-01-25T10:27:50.094Z,25
2017-01-25T10:28:49.336Z,25
2017-01-25T10:29:49.299Z,25
2017-01-25T10:30:49.647Z,25
2017-01-25T10:31:48.915Z,25
2017-01-25T10:32:49.273Z,25
2017-01-25T10:33:49.037Z,30
2017-01-25T10:34:48.945Z,30
2017-01-25T10:35:50.602Z,30
2017-01-25T10:36:48.967Z,30
2017-01-25T10:37:50.159Z,30
2017-01-25T10:38:49.029Z,30
2017-01-25T10:39:49.425Z,30
2017-01-25T10:40:48.940Z,30
2017-01-25T10:41:49.738Z,30
2017-01-25T10:42:49.800Z,30
2017-01-25T10:43:49.017Z,30
2017-01-25T10:44:49.826Z,30
2017-01-25T10:45:49.828Z,30
2017-01-25T10:46:51.418Z,30
2017-01-25T10:47:49.794Z,30
2017-01-25T10:48:50.748Z,30
2017-01-25T10:49:49.412Z,30
2017-01-25T10:50:50.070Z,30
2017-01-25T10:51:49.873Z,30
2017-01-25T10:52:49.443Z,30
2017-01-25T10:53:49.447Z,30
2017-01-25T10:54:49.558Z,30
2017-01-25T10:55:49.907Z,30
2017-01-25T10:56:49.821Z,30
2017-01-25T10:57:51.324Z,30
2017-01-25T10:58:49.500Z,30
2017-01-25T10:59:50.753Z,30
2017-01-25T11:00:49.902Z,30
2017-01-25T11:01:50.469Z,30
2017-01-25T11:02:49.574Z,35
2017-01-25T11:03:50.325Z,35
2017-01-25T11:04:49.618Z,35
2017-01-25T11:05:49.577Z,35
2017-01-25T11:06:49.953Z,35
2017-01-25T11:07:50.059Z,35
2017-01-25T11:08:51.994Z,35
2017-01-25T11:09:49.288Z,35
2017-01-25T11:10:50.906Z,35
2017-01-25T11:11:49.552Z,35
2017-01-25T11:12:50.660Z,35
2017-01-25T11:13:49.665Z,35
2017-01-25T11:14:49.725Z,35
2017-01-25T11:15:50.036Z,30
2017-01-25T11:16:50.431Z,30
2017-01-25T11:17:50.744Z,30
2017-01-25T11:18:49.313Z,30
2017-01-25T11:19:49.716Z,30
2017-01-25T11:20:49.775Z,35
2017-01-25T11:21:51.527Z,35
2017-01-25T11:22:49.740Z,35
2017-01-25T11:23:50.846Z,40
2017-01-25T11:24:50.203Z,40
2017-01-25T11:25:49.826Z,45
2017-01-25T11:26:50.567Z,45
2017-01-25T11:27:50.133Z,50
2017-01-25T11:28:49.744Z,50
2017-01-25T11:29:50.200Z,50
2017-01-25T11:30:50.603Z,50
2017-01-25T11:31:49.423Z,55
2017-01-25T11:32:51.850Z,55
2017-01-25T11:33:49.410Z,55
2017-01-25T11:34:49.844Z,55
2017-01-25T11:35:50.246Z,50
2017-01-25T11:36:50.310Z,55
2017-01-25T11:37:50.664Z,55
2017-01-25T11:38:50.481Z,50
2017-01-25T11:39:49.885Z,50
2017-01-25T11:40:49.926Z,50
2017-01-25T11:41:50.358Z,50
2017-01-25T11:42:49.072Z,50
2017-01-25T11:43:49.972Z,45
2017-01-25T11:44:50.376Z,45
2017-01-25T11:45:49.988Z,45
2017-01-25T11:46:50.496Z,45
2017-01-25T11:47:49.953Z,45
2017-01-25T11:48:49.962Z,45
2017-01-25T11:49:49.620Z,45
2017-01-25T11:50:49.989Z,45
2017-01-25T11:51:50.382Z,45
2017-01-25T11:52:50.843Z,40
2017-01-25T11:53:50.671Z,40
2017-01-25T11:54:50.405Z,40
2017-01-25T11:55:50.268Z,40
2017-01-25T11:56:50.372Z,40
2017-01-25T11:57:50.033Z,40
2017-01-25T11:58:50.392Z,40
2017-01-25T11:59:50.417Z,40
2017-01-25T12:00:50.021Z,45
2017-01-25T12:01:50.813Z,50
2017-01-25T12:02:49.686Z,50
2017-01-25T12:03:50.902Z,50
2017-01-25T12:04:50.099Z,50
2017-01-25T12:05:50.658Z,50
2017-01-25T12:06:49.274Z,50
2017-01-25T12:07:50.124Z,50
2017-01-25T12:08:50.627Z,50
2017-01-25T12:09:50.534Z,50
2017-01-25T12:10:49.753Z,50
2017-01-25T12:11:50.861Z,50
2017-01-25T12:12:50.114Z,50
2017-01-25T12:13:50.616Z,50
2017-01-25T12:14:51.863Z,50
2017-01-25T12:15:50.534Z,50
2017-01-25T12:16:51.102Z,50
2017-01-25T12:17:50.152Z,50
2017-01-25T12:18:49.795Z,50
2017-01-25T12:19:50.566Z,50
2017-01-25T12:20:49.912Z,45
2017-01-25T12:21:49.797Z,45
2017-01-25T12:22:50.300Z,40
2017-01-25T12:23:50.255Z,40
2017-01-25T12:24:50.516Z,45
2017-01-25T12:25:49.827Z,40
2017-01-25T12:26:50.283Z,40
2017-01-25T12:27:51.489Z,40
2017-01-25T12:28:50.303Z,40
2017-01-25T12:29:50.753Z,40
2017-01-25T12:30:50.761Z,40
2017-01-25T12:31:50.774Z,40
2017-01-25T12:32:50.725Z,40
2017-01-25T12:33:50.688Z,40
2017-01-25T12:34:49.900Z,40
2017-01-25T12:35:49.967Z,40
2017-01-25T12:36:50.769Z,40
2017-01-25T12:37:50.771Z,40
2017-01-25T12:38:51.984Z,40
2017-01-25T12:39:49.945Z,40
2017-01-25T12:40:50.745Z,40
2017-01-25T12:41:50.406Z,40
2017-01-25T12:42:51.205Z,40
2017-01-25T12:43:53.035Z,40
2017-01-25T12:44:50.780Z,40
2017-01-25T12:45:50.456Z,40
2017-01-25T12:46:50.896Z,40
2017-01-25T12:47:52.829Z,40
2017-01-25T12:48:50.464Z,40
2017-01-25T12:49:52.121Z,40
2017-01-25T12:50:51.324Z,40
2017-01-25T12:51:50.842Z,40
2017-01-25T12:52:50.121Z,40
2017-01-25T12:53:51.252Z,40
2017-01-25T12:54:49.844Z,40
2017-01-25T12:55:50.087Z,40
2017-01-25T12:56:50.948Z,40
2017-01-25T12:57:50.996Z,40
2017-01-25T12:58:51.336Z,40
2017-01-25T12:59:50.607Z,40
2017-01-25T13:00:52.818Z,40
2017-01-25T13:01:50.627Z,40
2017-01-25T13:02:50.936Z,40
2017-01-25T13:03:50.542Z,40
2017-01-25T13:04:50.600Z,35
2017-01-25T13:05:50.211Z,35
2017-01-25T13:06:51.009Z,35
2017-01-25T13:07:51.122Z,35
2017-01-25T13:08:50.635Z,35
2017-01-25T13:09:51.239Z,35
2017-01-25T13:10:50.599Z,35
2017-01-25T13:11:53.021Z,35
2017-01-25T13:12:51.108Z,35
2017-01-25T13:13:49.885Z,35
2017-01-25T13:14:51.026Z,35
2017-01-25T13:15:51.451Z,35
2017-01-25T13:16:51.091Z,35
2017-01-25T13:17:50.706Z,35
2017-01-25T13:18:51.123Z,35
2017-01-25T13:19:51.170Z,35
2017-01-25T13:20:51.512Z,35
2017-01-25T13:21:50.795Z,35
2017-01-25T13:22:51.125Z,35
2017-01-25T13:23:50.812Z,35
2017-01-25T13:24:51.166Z,35
2017-01-25T13:25:51.677Z,35
2017-01-25T13:26:50.780Z,35
2017-01-25T13:27:50.844Z,35
2017-01-25T13:28:50.850Z,35
2017-01-25T13:29:50.757Z,35
2017-01-25T13:30:50.425Z,35
2017-01-25T13:31:51.871Z,35
2017-01-25T13:32:51.624Z,35
2017-01-25T13:33:50.746Z,35
2017-01-25T13:34:51.498Z,35
2017-01-25T13:35:50.464Z,40
2017-01-25T13:36:50.074Z,40
2017-01-25T13:37:50.822Z,50
2017-01-25T13:38:51.275Z,65
2017-01-25T13:39:50.843Z,55
2017-01-25T13:40:50.898Z,55
2017-01-25T13:41:50.962Z,85
2017-01-25T13:42:52.311Z,85
2017-01-25T13:43:51.330Z,135
2017-01-25T13:44:51.138Z,185
2017-01-25T13:45:50.500Z,145
2017-01-25T13:46:51.300Z,110
2017-01-25T13:47:50.959Z,90
2017-01-25T13:48:51.362Z,45
2017-01-25T13:49:51.895Z,45
2017-01-25T13:50:50.596Z,50
2017-01-25T13:51:51.440Z,60
2017-01-25T13:52:51.007Z,50
2017-01-25T13:53:52.763Z,40
2017-01-25T13:54:50.982Z,35
2017-01-25T13:55:52.080Z,45
2017-01-25T13:56:51.042Z,105
2017-01-25T13:57:51.449Z,105
2017-01-25T13:58:51.068Z,45
2017-01-25T13:59:51.037Z,55
2017-01-25T14:00:51.027Z,95
2017-01-25T14:01:51.480Z,80
2017-01-25T14:02:51.537Z,45
2017-01-25T14:03:51.080Z,40
2017-01-25T14:04:53.062Z,35
2017-01-25T14:05:50.671Z,35
2017-01-25T14:06:52.227Z,40
2017-01-25T14:07:51.535Z,40
2017-01-25T14:08:51.588Z,35
2017-01-25T14:09:51.549Z,30
2017-01-25T14:10:51.211Z,30
2017-01-25T14:11:51.123Z,30
2017-01-25T14:12:52.034Z,30
2017-01-25T14:13:50.744Z,30
2017-01-25T14:14:50.802Z,30
2017-01-25T14:15:51.593Z,30
2017-01-25T14:16:51.564Z,30
2017-01-25T14:17:52.924Z,30
2017-01-25T14:18:51.633Z,30
2017-01-25T14:19:51.221Z,25
2017-01-25T14:21:05.390Z,25
2017-01-25T14:21:51.313Z,25
2017-01-25T14:22:50.891Z,25
2017-01-25T14:23:52.622Z,25
2017-01-25T14:24:51.389Z,25
2017-01-25T14:25:51.641Z,25
2017-01-25T14:26:52.050Z,25
2017-01-25T14:27:51.411Z,25
2017-01-25T14:28:50.878Z,25
2017-01-25T14:29:51.294Z,25
2017-01-25T14:30:51.333Z,25
2017-01-25T14:31:51.296Z,25
2017-01-25T14:32:51.910Z,25
2017-01-25T14:33:51.710Z,25
2017-01-25T14:34:51.714Z,25